Time;durP1;ratioP1;P1;durP2;ratioP2;P2;SDS_P1;SDS_P2;PMS_P1;PMS_P2;Temp;Humidity;BMP_temperature;BMP_pressure;BME280_temperature;BME280_humidity;BME280_pressure;Samples;Min_cycle;Max_cycle;Signal;HPM_P1;HPM_P2
2021/12/17 00:00:33;;;;;;;33.55;3.55;;;;;;;;;;4977120;28;20202;-77
2021/12/17 00:05:43;;;;;;;30.77;2.70;;;;;;;;;;4973364;28;20185;-77
2021/12/17 00:08:09;;;;;;;36.17;2.72;;;6.90;50.10;;;;;;4972902;28;20158;-77
2021/12/17 00:10:34;;;;;;;49.07;3.53;;;6.80;50.10;;;;;;4986104;28;20222;-77
2021/12/17 00:13:00;;;;;;;50.93;3.90;;;;;;;;;;4991452;28;20186;-76
2021/12/17 00:15:26;;;;;;;30.08;3.10;;;6.80;50.50;;;;;;4992523;28;20188;-77
2021/12/17 00:17:59;;;;;;;29.53;4.00;;;;;;;;;;4992346;28;20182;-77
2021/12/17 00:52:37;;;;;;;37.95;2.88;;;7.30;48.60;;;;;;4989685;28;20194;-76
2021/12/17 00:55:05;;;;;;;24.90;2.63;;;;;;;;;;5005042;28;20213;-77
2021/12/17 00:57:38;;;;;;;24.25;3.38;;;;;;;;;;4996192;28;20715;-76
2021/12/17 01:00:07;;;;;;;177.23;8.90;;;;;;;;;;4991862;28;20697;-76
2021/12/17 01:02:36;;;;;;;28.70;2.85;;;7.70;46.80;;;;;;4998473;28;20566;-77
2021/12/17 01:05:05;;;;;;;35.05;2.60;;;;;;;;;;4999768;28;20204;-77
2021/12/17 01:07:33;;;;;;;24.70;2.60;;;;;;;;;;4992626;28;20584;-77
2021/12/17 01:10:00;;;;;;;41.13;3.85;;;;;;;;;;4995745;28;20667;-76
2021/12/17 01:12:26;;;;;;;48.13;3.13;;;7.40;46.70;;;;;;4994855;28;20186;-77
2021/12/17 01:14:53;;;;;;;29.80;3.17;;;;;;;;;;4994222;28;20177;-77
2021/12/17 01:17:20;;;;;;;48.33;3.70;;;;;;;;;;4988438;28;20178;-77
2021/12/17 01:22:57;;;;;;;29.17;2.63;;;7.60;46.90;;;;;;4991891;28;20213;-77
2021/12/17 01:36:26;;;;;;;35.58;2.88;;;;;;;;;;4995235;28;20173;-77
2021/12/17 01:44:19;;;;;;;35.95;3.25;;;;;;;;;;4995761;28;20177;-77
2021/12/17 01:46:46;;;;;;;39.50;4.50;;;7.40;48.40;;;;;;4995203;28;20201;-77
2021/12/17 02:00:13;;;;;;;33.40;3.78;;;7.60;47.40;;;;;;4931062;28;20477;-77
2021/12/17 02:02:44;;;;;;;31.35;3.33;;;;;;;;;;5000725;28;20200;-77
2021/12/17 02:05:11;;;;;;;25.88;3.15;;;;;;;;;;4987827;28;20177;-77
2021/12/17 02:07:37;;;;;;;42.90;2.70;;;;;;;;;;5001577;28;20186;-76
2021/12/17 02:10:41;;;;;;;42.30;3.55;;;7.20;49.70;;;;;;5002990;28;20209;-77
2021/12/17 02:19:28;;;;;;;61.53;4.82;;;;;;;;;;4999055;28;20547;-77
2021/12/17 02:32:01;;;;;;;45.60;3.10;;;7.40;48.90;;;;;;5008383;28;20192;-77
2021/12/17 02:37:12;;;;;;;34.65;2.88;;;7.60;47.90;;;;;;4994963;28;20684;-76
2021/12/17 02:47:40;;;;;;;32.17;3.30;;;;;;;;;;4999468;28;20196;-77
2021/12/17 02:50:06;;;;;;;30.08;2.70;;;;;;;;;;4994200;28;20216;-77
2021/12/17 02:52:36;;;;;;;55.58;3.90;;;7.30;49.50;;;;;;4994159;28;20189;-77
2021/12/17 02:55:04;;;;;;;32.60;3.20;;;7.40;49.40;;;;;;4996918;28;20185;-76
2021/12/17 02:57:32;;;;;;;29.33;3.42;;;7.30;50.00;;;;;;4997936;28;20197;-77
2021/12/17 02:59:58;;;;;;;41.55;3.92;;;;;;;;;;5008771;28;20193;-77
2021/12/17 03:02:28;;;;;;;45.92;4.07;;;;;;;;;;5009132;28;20198;-77
2021/12/17 03:04:53;;;;;;;27.42;2.10;;;7.60;48.50;;;;;;5014631;28;20166;-77
2021/12/17 03:07:20;;;;;;;25.70;2.17;;;;;;;;;;4995660;28;20186;-77
2021/12/17 03:10:03;;;;;;;31.05;2.75;;;7.90;47.20;;;;;;4995521;28;20463;-77
2021/12/17 03:12:36;;;;;;;27.88;3.47;;;;;;;;;;4996124;28;20644;-77
2021/12/17 03:23:27;;;;;;;31.67;3.10;;;;;;;;;;4996684;28;20532;-76
2021/12/17 03:25:54;;;;;;;58.50;4.70;;;7.70;49.10;;;;;;5000429;28;20158;-77
2021/12/17 03:28:20;;;;;;;27.88;3.30;;;7.90;48.00;;;;;;4975719;28;20728;-77
2021/12/17 03:30:46;;;;;;;43.57;5.07;;;8.00;48.50;;;;;;4993181;28;20288;-77
2021/12/17 03:33:12;;;;;;;36.33;3.47;;;8.00;47.80;;;;;;4997345;28;20428;-77
2021/12/17 03:35:38;;;;;;;39.03;3.38;;;7.90;47.60;;;;;;5000831;28;20182;-77
2021/12/17 03:38:05;;;;;;;30.13;2.67;;;7.90;47.80;;;;;;4993413;28;20677;-77
2021/12/17 03:40:33;;;;;;;38.33;4.45;;;;;;;;;;4993317;28;20221;-76
2021/12/17 03:43:05;;;;;;;28.95;2.95;;;;;;;;;;4993374;28;20205;-77
2021/12/17 03:45:30;;;;;;;30.27;3.15;;;7.90;48.40;;;;;;4993533;28;20178;-77
2021/12/17 03:47:57;;;;;;;39.40;2.80;;;8.00;48.20;;;;;;4997271;28;20178;-77
2021/12/17 03:50:23;;;;;;;27.73;2.53;;;7.90;48.30;;;;;;4994052;28;20451;-77
2021/12/17 03:52:50;;;;;;;57.78;4.90;;;;;;;;;;4998493;28;20240;-77
2021/12/17 03:55:16;;;;;;;31.67;3.67;;;;;;;;;;4992733;28;20556;-77
2021/12/17 03:57:42;;;;;;;17.65;2.85;;;;;;;;;;4993429;28;20272;-77
2021/12/17 04:00:10;;;;;;;38.97;4.57;;;;;;;;;;4995076;28;20200;-77
2021/12/17 04:02:37;;;;;;;29.45;4.55;;;;;;;;;;4977412;28;20216;-77
2021/12/17 04:05:03;;;;;;;32.85;3.25;;;;;;;;;;4993647;28;20178;-77
2021/12/17 04:07:30;;;;;;;28.88;4.45;;;8.10;48.40;;;;;;4993767;28;20261;-77
2021/12/17 04:09:56;;;;;;;32.60;2.90;;;;;;;;;;4994253;28;20692;-77
2021/12/17 04:12:30;;;;;;;34.03;3.40;;;8.60;46.40;;;;;;4993464;28;20186;-77
2021/12/17 04:14:57;;;;;;;37.55;2.70;;;;;;;;;;4993086;28;20176;-77
2021/12/17 04:17:26;;;;;;;34.38;3.53;;;8.40;47.60;;;;;;4992091;28;20181;-77
2021/12/17 04:19:52;;;;;;;37.15;3.67;;;;;;;;;;4997695;28;20201;-77
2021/12/17 04:22:18;;;;;;;31.42;3.90;;;8.20;47.90;;;;;;4974594;28;20230;-77
2021/12/17 04:24:43;;;;;;;30.77;2.70;;;8.10;48.80;;;;;;4993462;28;20233;-77
2021/12/17 04:27:09;;;;;;;42.20;4.23;;;7.70;50.60;;;;;;4995150;28;20177;-77
2021/12/17 04:29:41;;;;;;;36.57;3.70;;;7.50;52.50;;;;;;4994892;28;20202;-77
2021/12/17 04:32:07;;;;;;;33.88;3.13;;;;;;;;;;4992765;28;20421;-77
2021/12/17 04:34:33;;;;;;;24.63;3.53;;;;;;;;;;5000680;28;21384;-77
2021/12/17 04:37:00;;;;;;;34.78;3.60;;;;;;;;;;4996217;28;20631;-77
2021/12/17 04:39:26;;;;;;;52.00;4.13;;;;;;;;;;4993203;28;20669;-76
2021/12/17 04:42:00;;;;;;;28.90;3.45;;;8.50;47.70;;;;;;4996475;28;20193;-77
2021/12/17 04:44:29;;;;;;;27.65;3.63;;;8.50;47.90;;;;;;4977660;28;20227;-79
2021/12/17 04:57:40;;;;;;;45.13;3.83;;;8.70;47.90;;;;;;5010294;28;20185;-79
2021/12/17 05:00:14;;;;;;;51.88;4.50;;;8.70;47.90;;;;;;5013628;28;20199;-79
2021/12/17 05:02:44;;;;;;;44.47;2.90;;;8.40;48.40;;;;;;5012566;28;20903;-81
2021/12/17 05:05:11;;;;;;;30.48;3.72;;;;;;;;;;5017403;28;20237;-79
2021/12/17 05:07:41;;;;;;;44.15;3.55;;;;;;;;;;5010647;28;20183;-80
2021/12/17 05:10:19;;;;;;;46.40;3.75;;;8.70;47.90;;;;;;5001565;28;20232;-79
2021/12/17 05:18:34;;;;;;;9.73;3.25;;;7.60;54.20;;;;;;5056748;28;20245;-72
2021/12/17 05:21:04;;;;;;;12.52;3.30;;;7.80;53.90;;;;;;5057257;28;20178;-73
2021/12/17 05:23:34;;;;;;;9.30;2.67;;;7.60;55.40;;;;;;5056786;28;20698;-72
2021/12/17 05:26:12;;;;;;;12.38;3.00;;;7.70;54.80;;;;;;5030089;28;20180;-73
2021/12/17 05:28:38;;;;;;;11.50;3.67;;;8.20;51.90;;;;;;5037055;28;20179;-72
2021/12/17 05:31:04;;;;;;;10.90;2.80;;;8.20;51.90;;;;;;5036090;28;20180;-72
2021/12/17 05:33:30;;;;;;;8.30;2.25;;;8.40;52.70;;;;;;5037046;28;20227;-72
2021/12/17 05:35:58;;;;;;;15.47;4.07;;;8.70;50.20;;;;;;5036883;28;20184;-72
2021/12/17 05:38:28;;;;;;;13.10;3.20;;;8.00;51.90;;;;;;5037209;28;20180;-72
2021/12/17 05:40:55;;;;;;;12.38;3.10;;;7.60;55.60;;;;;;5037010;28;20196;-73
2021/12/17 05:43:20;;;;;;;10.35;2.45;;;7.00;59.40;;;;;;5037123;28;20204;-71
2021/12/17 05:46:07;;;;;;;14.80;5.00;;;7.20;60.00;;;;;;5035082;28;20207;-72
2021/12/17 05:48:34;;;;;;;7.78;2.10;;;7.70;55.90;;;;;;5037104;28;21130;-72
2021/12/17 05:51:02;;;;;;;10.38;2.50;;;7.90;54.00;;;;;;5037031;28;20235;-71
2021/12/17 05:53:31;;;;;;;9.77;3.20;;;8.10;52.20;;;;;;5036870;28;20239;-69
2021/12/17 05:55:57;;;;;;;10.13;3.65;;;8.30;51.50;;;;;;5036289;28;20195;-70
2021/12/17 05:58:24;;;;;;;11.88;2.42;;;8.30;51.00;;;;;;5037188;28;20671;-70
2021/12/17 06:00:49;;;;;;;12.05;3.45;;;8.20;50.90;;;;;;5037099;28;20545;-70
2021/12/17 06:03:17;;;;;;;13.97;3.40;;;8.00;51.60;;;;;;5037018;28;20215;-70
2021/12/17 06:05:43;;;;;;;15.20;4.65;;;8.70;54.90;;;;;;5035958;28;20574;-71
2021/12/17 06:08:09;;;;;;;18.60;3.93;;;7.60;54.30;;;;;;5036635;28;20192;-71
2021/12/17 06:10:35;;;;;;;15.60;4.87;;;7.50;54.10;;;;;;5032931;28;20181;-71
2021/12/17 06:13:01;;;;;;;14.50;3.53;;;7.60;53.90;;;;;;5033014;28;20914;-71
2021/12/17 06:15:26;;;;;;;15.50;3.27;;;7.90;52.30;;;;;;5033777;28;20462;-71
2021/12/17 06:17:52;;;;;;;12.87;2.70;;;8.20;50.20;;;;;;5033342;28;20208;-72
2021/12/17 06:20:20;;;;;;;15.23;3.45;;;8.30;49.70;;;;;;5033586;28;20179;-73
2021/12/17 06:22:47;;;;;;;13.70;3.15;;;8.30;49.30;;;;;;5033389;28;20200;-73
2021/12/17 06:25:13;;;;;;;12.55;2.83;;;8.30;49.10;;;;;;5034021;28;20969;-73
2021/12/17 06:27:39;;;;;;;10.80;2.72;;;8.20;48.90;;;;;;5033683;28;20233;-73
2021/12/17 06:30:08;;;;;;;15.00;4.22;;;8.00;48.80;;;;;;5033142;28;20212;-73
2021/12/17 06:32:34;;;;;;;15.00;3.58;;;8.10;49.10;;;;;;5028599;28;20188;-73
2021/12/17 06:35:00;;;;;;;24.27;5.03;;;8.10;48.60;;;;;;5029981;28;20638;-73
2021/12/17 06:37:25;;;;;;;21.77;4.83;;;8.10;48.70;;;;;;5032024;28;20276;-73
2021/12/17 06:39:51;;;;;;;13.33;4.23;;;7.90;49.30;;;;;;5033215;28;20271;-73
2021/12/17 06:42:17;;;;;;;12.10;2.80;;;7.60;49.10;;;;;;5033349;28;20204;-73
2021/12/17 06:44:45;;;;;;;14.85;3.03;;;7.70;49.10;;;;;;5032507;28;20204;-73
2021/12/17 06:47:32;;;;;;;8.35;2.25;;;7.80;48.70;;;;;;5032901;28;20670;-73
2021/12/17 06:58:29;;;;;;;13.40;3.30;;;7.70;48.60;;;;;;5032916;28;20180;-73
2021/12/17 07:10:55;;;;;;;14.32;3.28;;;7.20;48.70;;;;;;5025721;28;20179;-73
2021/12/17 07:32:38;;;;;;;10.43;2.10;;;7.00;49.10;;;;;;5032813;28;20604;-77
2021/12/17 07:40:08;;;;;;;11.05;2.58;;;6.80;50.70;;;;;;5025611;28;20671;-72
2021/12/17 07:42:34;;;;;;;14.70;3.90;;;6.90;50.20;;;;;;5032604;28;20652;-72
2021/12/17 07:45:00;;;;;;;10.52;2.45;;;7.10;49.90;;;;;;5031992;28;20667;-72
2021/12/17 07:47:27;;;;;;;12.60;2.97;;;7.30;49.10;;;;;;5031817;28;20259;-72
2021/12/17 07:49:53;;;;;;;15.88;3.80;;;7.20;50.00;;;;;;5030881;28;20631;-72
2021/12/17 07:52:20;;;;;;;12.90;3.97;;;6.90;49.50;;;;;;5032140;28;20274;-73
2021/12/17 07:54:45;;;;;;;9.50;2.33;;;6.00;49.00;;;;;;5031598;28;20483;-73
2021/12/17 07:57:11;;;;;;;10.80;3.03;;;7.30;49.70;;;;;;5031613;28;20254;-73
2021/12/17 07:59:37;;;;;;;11.13;2.87;;;7.50;48.80;;;;;;5031842;28;20700;-73
2021/12/17 08:02:03;;;;;;;15.30;3.33;;;7.50;49.30;;;;;;5031437;28;20296;-73
2021/12/17 08:04:29;;;;;;;10.07;2.30;;;7.40;48.80;;;;;;5032168;28;20196;-73
2021/12/17 08:06:54;;;;;;;9.57;2.13;;;7.40;48.70;;;;;;5031336;28;20677;-73
2021/12/17 08:09:20;;;;;;;11.30;2.07;;;7.30;49.50;;;;;;5031571;28;20177;-73
2021/12/17 08:11:54;;;;;;;9.73;3.13;;;7.30;49.10;;;;;;5031922;28;20183;-73
2021/12/17 08:14:20;;;;;;;11.38;2.78;;;7.00;50.00;;;;;;5023783;28;20455;-73
2021/12/17 08:25:09;;;;;;;14.82;4.53;;;7.30;49.60;;;;;;5031439;28;20572;-73
2021/12/17 08:28:03;;;;;;;13.65;4.05;;;7.40;50.40;;;;;;5031368;28;20195;-73
2021/12/17 08:30:37;;;;;;;8.38;3.92;;;7.50;48.40;;;;;;5023830;28;20183;-73
2021/12/17 08:33:05;;;;;;;13.43;2.75;;;7.70;47.60;;;;;;5030606;28;20263;-73
2021/12/17 08:35:31;;;;;;;11.65;2.47;;;7.50;48.40;;;;;;5031571;28;20211;-73
2021/12/17 08:37:57;;;;;;;22.15;4.38;;;7.40;49.00;;;;;;5030972;28;20181;-73
2021/12/17 08:40:26;;;;;;;15.00;4.67;;;7.40;49.80;;;;;;5030937;28;20268;-73
2021/12/17 08:42:54;;;;;;;16.85;4.00;;;7.40;49.70;;;;;;5031138;28;20232;-73
2021/12/17 08:45:19;;;;;;;16.63;3.42;;;7.70;49.50;;;;;;5030773;28;20201;-73
2021/12/17 08:47:45;;;;;;;7.73;1.80;;;8.20;48.00;;;;;;5030770;28;20183;-73
2021/12/17 08:50:12;;;;;;;14.50;3.57;;;8.00;47.80;;;;;;5031227;28;20181;-73
2021/12/17 08:52:38;;;;;;;13.00;2.78;;;7.70;48.40;;;;;;5023307;28;20445;-73
2021/12/17 08:55:05;;;;;;;16.02;3.33;;;7.60;49.30;;;;;;5030804;28;20212;-73
2021/12/17 08:57:31;;;;;;;11.85;3.55;;;7.50;50.00;;;;;;5030583;28;20187;-73
2021/12/17 08:59:57;;;;;;;17.53;3.93;;;7.50;50.30;;;;;;5030977;28;20641;-73
2021/12/17 09:02:24;;;;;;;16.83;4.93;;;7.50;50.70;;;;;;5030568;28;20223;-73
2021/12/17 09:04:51;;;;;;;15.38;3.60;;;7.90;49.50;;;;;;5030983;28;20224;-73
2021/12/17 09:07:17;;;;;;;17.75;3.88;;;7.90;49.40;;;;;;5031288;28;20187;-73
2021/12/17 09:09:45;;;;;;;14.75;3.55;;;7.90;49.70;;;;;;5030628;28;20266;-73
2021/12/17 09:12:11;;;;;;;14.45;3.60;;;7.80;50.20;;;;;;5030985;28;20173;-73
2021/12/17 09:14:37;;;;;;;17.50;3.00;;;7.70;51.80;;;;;;5030617;28;20231;-73
2021/12/17 09:17:02;;;;;;;14.83;2.50;;;7.30;53.90;;;;;;5030605;28;20717;-73
2021/12/17 09:19:28;;;;;;;15.23;3.27;;;7.30;54.30;;;;;;5030793;28;20183;-73
2021/12/17 09:21:54;;;;;;;15.80;5.20;;;7.40;55.80;;;;;;5030741;28;20465;-73
2021/12/17 09:24:20;;;;;;;28.17;4.30;;;7.10;56.90;;;;;;5030528;28;20232;-73
2021/12/17 09:26:45;;;;;;;21.17;4.80;;;6.90;58.50;;;;;;5030254;28;20189;-73
2021/12/17 09:29:11;;;;;;;12.70;2.53;;;6.90;59.30;;;;;;5030700;28;20419;-73
2021/12/17 09:31:37;;;;;;;14.07;3.00;;;7.30;57.60;;;;;;5045568;28;20204;-73
2021/12/17 09:34:03;;;;;;;21.80;3.67;;;7.20;58.00;;;;;;5030179;28;20258;-73
2021/12/17 09:36:29;;;;;;;23.53;3.40;;;7.40;56.90;;;;;;5030520;28;20173;-72
2021/12/17 09:38:54;;;;;;;22.60;3.73;;;7.30;57.30;;;;;;5030456;28;20735;-71
2021/12/17 09:41:22;;;;;;;13.10;3.77;;;7.00;60.90;;;;;;5030207;28;20181;-72
2021/12/17 09:43:48;;;;;;;19.85;3.28;;;7.30;58.20;;;;;;5030853;28;20798;-73
2021/12/17 09:46:14;;;;;;;19.20;4.00;;;7.40;58.40;;;;;;5034001;28;20222;-73
2021/12/17 09:48:40;;;;;;;12.18;2.75;;;7.50;58.60;;;;;;5033954;28;20913;-73
2021/12/17 09:51:07;;;;;;;16.58;2.63;;;7.70;56.00;;;;;;5033521;28;20722;-72
2021/12/17 09:53:34;;;;;;;12.57;3.38;;;7.90;54.50;;;;;;5033991;28;20168;-73
2021/12/17 09:56:01;;;;;;;26.30;4.13;;;7.90;55.00;;;;;;5031579;28;20312;-73
2021/12/17 09:58:26;;;;;;;11.70;3.95;;;7.80;55.60;;;;;;5033221;28;20180;-73
2021/12/17 10:00:52;;;;;;;15.87;3.50;;;7.90;55.60;;;;;;5032765;28;20183;-73
2021/12/17 10:03:19;;;;;;;17.10;3.50;;;8.00;54.90;;;;;;5032732;28;20463;-73
2021/12/17 10:05:46;;;;;;;21.60;4.25;;;8.10;54.30;;;;;;5032623;28;20427;-73
2021/12/17 10:08:13;;;;;;;18.95;4.38;;;8.50;52.60;;;;;;5032161;28;20189;-73
2021/12/17 10:10:45;;;;;;;13.57;2.85;;;8.40;52.40;;;;;;5032784;28;20176;-73
2021/12/17 10:13:20;;;;;;;16.58;3.17;;;8.70;51.40;;;;;;5032326;28;20648;-73
2021/12/17 10:15:49;;;;;;;15.38;2.80;;;8.80;49.50;;;;;;5031144;28;20212;-74
2021/12/17 10:18:17;;;;;;;17.05;3.38;;;9.00;50.20;;;;;;5031797;28;20192;-71
2021/12/17 10:20:51;;;;;;;14.40;2.28;;;9.10;48.20;;;;;;5032681;28;20180;-72
2021/12/17 10:23:19;;;;;;;14.98;3.05;;;8.60;48.40;;;;;;5031317;28;20266;-72
2021/12/17 10:25:45;;;;;;;14.00;2.60;;;8.60;48.40;;;;;;5033165;28;20548;-72
2021/12/17 10:28:12;;;;;;;13.60;2.43;;;8.10;50.10;;;;;;5033214;28;20184;-72
2021/12/17 10:30:40;;;;;;;17.10;3.20;;;8.50;49.10;;;;;;5033722;28;20192;-72
2021/12/17 10:33:09;;;;;;;10.30;2.22;;;8.80;47.50;;;;;;5033237;28;20188;-72
2021/12/17 10:35:38;;;;;;;13.05;2.50;;;9.50;46.20;;;;;;5033655;28;20207;-72
2021/12/17 10:38:07;;;;;;;8.75;1.90;;;9.90;43.50;;;;;;5033204;28;20195;-73
2021/12/17 10:40:34;;;;;;;10.65;2.33;;;10.30;41.50;;;;;;5025282;28;20181;-73
2021/12/17 10:43:18;;;;;;;11.43;2.90;;;10.70;39.80;;;;;;5033239;28;20666;-73
2021/12/17 10:45:58;;;;;;;12.15;2.90;;;10.60;39.60;;;;;;5026233;28;20198;-73
2021/12/17 10:51:14;;;;;;;12.98;2.88;;;10.60;39.10;;;;;;5033128;28;20553;-72
2021/12/17 10:53:53;;;;;;;23.00;4.03;;;11.10;37.60;;;;;;5032487;28;20643;-72
2021/12/17 10:56:45;;;;;;;14.15;3.20;;;11.20;38.40;;;;;;5031041;28;20550;-72
2021/12/17 10:59:18;;;;;;;11.85;2.63;;;11.60;37.20;;;;;;5030560;28;20190;-72
2021/12/17 11:01:53;;;;;;;12.32;2.67;;;11.60;36.50;;;;;;5025601;28;20176;-71
2021/12/17 11:04:30;;;;;;;12.38;3.22;;;11.20;36.40;;;;;;5032597;28;20199;-73
2021/12/17 11:07:03;;;;;;;12.52;2.33;;;10.80;40.20;;;;;;5032562;28;20180;-72
2021/12/17 11:09:49;;;;;;;12.90;2.53;;;10.70;39.30;;;;;;5032458;28;20219;-72
2021/12/17 11:12:28;;;;;;;10.70;2.25;;;10.90;38.30;;;;;;5032643;28;20197;-72
2021/12/17 11:15:06;;;;;;;11.35;2.58;;;11.20;38.60;;;;;;5025783;28;20208;-73
2021/12/17 11:17:32;;;;;;;16.10;3.08;;;11.60;37.80;;;;;;5032338;28;20275;-73
2021/12/17 11:19:59;;;;;;;44.90;3.63;;;;;;;;;;5055416;22;20314;-71
2021/12/17 11:22:29;;;;;;;33.70;3.40;;;;;;;;;;5032124;28;20466;-71
2021/12/17 11:24:56;;;;;;;26.42;3.35;;;;;;;;;;5032480;28;20759;-71
2021/12/17 11:27:22;;;;;;;29.83;3.00;;;12.10;35.00;;;;;;5030903;28;20184;-71
2021/12/17 11:29:49;;;;;;;29.67;3.20;;;11.30;35.60;;;;;;5022838;28;20204;-71
2021/12/17 11:32:15;;;;;;;32.22;3.17;;;11.40;36.60;;;;;;5013284;28;20460;-71
2021/12/17 11:34:43;;;;;;;33.13;3.20;;;11.90;35.00;;;;;;5012626;28;20189;-71
2021/12/17 11:37:09;;;;;;;26.40;2.60;;;;;;;;;;5012143;28;20447;-71
2021/12/17 11:39:39;;;;;;;36.80;3.90;;;;;;;;;;5012389;28;20938;-71
2021/12/17 11:42:33;;;;;;;30.67;3.70;;;11.30;36.10;;;;;;5012518;28;20970;-71
2021/12/17 11:47:47;;;;;;;28.90;3.63;;;;;;;;;;5012230;28;20428;-71
2021/12/17 11:50:16;;;;;;;30.33;4.10;;;13.60;32.20;;;;;;5011532;28;20934;-71
2021/12/17 11:52:53;;;;;;;32.73;4.30;;;14.50;30.90;;;;;;5011808;28;20443;-72
2021/12/17 11:55:28;;;;;;;26.40;3.50;;;14.60;29.90;;;;;;5011608;28;20475;-71
2021/12/17 11:57:58;;;;;;;22.10;2.90;;;14.40;30.30;;;;;;5011759;28;20411;-71
2021/12/17 12:00:44;;;;;;;25.93;4.13;;;;;;;;;;5012218;28;20508;-72
2021/12/17 12:03:13;;;;;;;34.87;3.30;;;14.30;29.40;;;;;;5011143;28;20810;-72
2021/12/17 12:05:40;;;;;;;29.80;3.17;;;14.20;29.90;;;;;;5011806;28;20504;-72
2021/12/17 12:08:32;;;;;;;49.53;5.00;;;13.60;30.70;;;;;;5010900;28;20429;-72
2021/12/17 12:11:17;;;;;;;40.93;4.17;;;;;;;;;;5003717;28;20441;-72
2021/12/17 12:13:49;;;;;;;36.53;4.20;;;13.00;31.90;;;;;;5011529;28;20457;-72
2021/12/17 12:16:26;;;;;;;34.23;3.93;;;13.50;31.50;;;;;;5012288;28;20433;-72
2021/12/17 12:18:59;;;;;;;52.47;4.37;;;;;;;;;;5011492;28;20529;-72
2021/12/17 12:21:32;;;;;;;30.73;3.90;;;14.50;28.70;;;;;;5011766;28;20461;-72
2021/12/17 12:24:18;;;;;;;22.50;3.20;;;14.90;28.30;;;;;;5011762;28;21016;-72
2021/12/17 12:26:46;;;;;;;32.57;3.60;;;15.20;27.80;;;;;;5010847;28;20448;-72
2021/12/17 12:29:14;;;;;;;23.23;3.20;;;15.10;27.80;;;;;;5011536;28;20437;-72
2021/12/17 12:31:41;;;;;;;58.83;4.60;;;;;;;;;;5011219;28;20435;-72
2021/12/17 12:34:12;;;;;;;29.13;4.20;;;;;;;;;;5011224;28;20423;-73
2021/12/17 12:36:44;;;;;;;23.00;3.10;;;13.70;28.40;;;;;;5011584;28;20420;-72
2021/12/17 12:39:31;;;;;;;20.37;2.87;;;12.90;30.00;;;;;;5003989;28;20481;-72
2021/12/17 12:42:21;;;;;;;36.47;3.40;;;12.70;29.70;;;;;;5011224;28;20482;-72
2021/12/17 12:44:47;;;;;;;27.07;3.43;;;;;;;;;;5011590;28;20427;-72
2021/12/17 12:47:48;;;;;;;32.00;3.40;;;13.00;30.40;;;;;;5011085;28;21201;-72
2021/12/17 12:50:15;;;;;;;18.57;3.30;;;;;;;;;;5011340;28;20502;-72
2021/12/17 12:52:44;;;;;;;30.33;3.70;;;;;;;;;;5011258;28;20555;-72
2021/12/17 12:55:16;;;;;;;49.27;4.13;;;;;;;;;;5003012;28;20432;-72
2021/12/17 12:57:50;;;;;;;23.13;3.37;;;;;;;;;;5011222;28;20428;-72
2021/12/17 13:00:26;;;;;;;26.43;3.37;;;12.40;31.70;;;;;;5003788;28;20854;-72
2021/12/17 13:02:56;;;;;;;38.90;4.17;;;;;;;;;;5010533;28;20453;-72
2021/12/17 13:05:24;;;;;;;38.07;3.60;;;12.60;32.30;;;;;;5009963;28;20421;-72
2021/12/17 13:07:52;;;;;;;31.97;3.80;;;12.50;32.30;;;;;;5010907;28;20508;-72
2021/12/17 13:10:20;;;;;;;25.50;2.83;;;;;;;;;;5010802;28;20464;-72
2021/12/17 13:12:57;;;;;;;19.73;2.57;;;;;;;;;;5010993;28;20429;-72
2021/12/17 13:23:22;;;;;;;22.27;2.67;;;;;;;;;;5007593;28;20546;-72
2021/12/17 13:26:00;;;;;;;30.60;2.83;;;;;;;;;;5014671;28;20443;-71
2021/12/17 13:28:25;;;;;;;35.27;3.07;;;;;;;;;;5007560;28;20426;-72
2021/12/17 13:30:56;;;;;;;24.33;2.70;;;;;;;;;;5013372;28;20511;-72
2021/12/17 13:33:21;;;;;;;26.30;3.17;;;14.30;28.80;;;;;;5013399;28;20424;-72
2021/12/17 13:35:47;;;;;;;20.97;2.60;;;14.70;28.50;;;;;;5014732;28;20523;-72
2021/12/17 13:38:13;;;;;;;28.73;3.50;;;;;;;;;;5014402;28;20655;-72
2021/12/17 13:40:39;;;;;;;22.53;2.80;;;;;;;;;;5014437;28;20487;-72
2021/12/17 13:43:05;;;;;;;42.20;3.40;;;;;;;;;;5014295;28;20525;-72
2021/12/17 13:45:31;;;;;;;17.93;2.40;;;;;;;;;;5014959;28;20424;-72
2021/12/17 13:47:58;;;;;;;14.10;2.13;;;;;;;;;;5014468;28;20420;-72
2021/12/17 13:50:25;;;;;;;22.60;3.07;;;13.10;31.20;;;;;;5014159;28;20519;-72
2021/12/17 13:52:54;;;;;;;27.13;2.80;;;;;;;;;;5013136;28;20490;-72
2021/12/17 13:55:22;;;;;;;27.43;2.80;;;;;;;;;;5014456;28;20428;-72
2021/12/17 13:57:48;;;;;;;23.07;3.00;;;13.00;30.70;;;;;;5014407;28;20511;-73
2021/12/17 14:00:14;;;;;;;30.57;3.40;;;13.10;30.40;;;;;;5014371;28;20460;-73
2021/12/17 14:02:42;;;;;;;21.53;3.03;;;12.90;30.60;;;;;;5015677;28;20456;-73
2021/12/17 14:05:10;;;;;;;25.90;2.90;;;;;;;;;;5015578;28;20923;-72
2021/12/17 14:07:38;;;;;;;26.57;3.40;;;12.60;31.50;;;;;;5012843;28;20451;-73
2021/12/17 14:10:09;;;;;;;22.97;2.77;;;12.40;31.90;;;;;;5014189;28;20912;-73
2021/12/17 14:12:37;;;;;;;30.53;3.40;;;;;;;;;;5006637;28;20460;-73
2021/12/17 14:15:13;;;;;;;25.27;3.03;;;;;;;;;;5014262;28;20424;-73
2021/12/17 14:17:43;;;;;;;23.13;2.67;;;11.90;33.20;;;;;;5007050;28;20935;-72
2021/12/17 14:20:16;;;;;;;34.90;3.10;;;;;;;;;;5013715;28;20554;-73
2021/12/17 14:22:45;;;;;;;18.23;2.40;;;11.70;33.80;;;;;;5006850;28;20630;-73
2021/12/17 14:25:36;;;;;;;22.77;2.55;;;11.50;34.70;;;;;;5013658;28;20220;-73
2021/12/17 14:28:19;;;;;;;28.27;3.05;;;;;;;;;;5012113;28;20173;-73
2021/12/17 14:30:48;;;;;;;21.80;2.47;;;;;;;;;;5012715;28;20190;-73
2021/12/17 14:33:17;;;;;;;37.65;3.13;;;12.00;33.60;;;;;;5013356;28;20264;-72
2021/12/17 14:35:43;;;;;;;26.60;2.50;;;;;;;;;;5028691;28;20177;-73
2021/12/17 14:38:10;;;;;;;22.00;2.57;;;11.70;33.80;;;;;;5012868;28;20173;-73
2021/12/17 14:40:45;;;;;;;14.35;1.77;;;11.80;33.40;;;;;;5013448;28;20456;-73
2021/12/17 14:43:45;;;;;;;28.75;3.28;;;11.60;33.70;;;;;;5012323;28;20203;-73
2021/12/17 14:49:15;;;;;;;31.70;2.80;;;11.70;34.00;;;;;;5013065;28;20257;-73
2021/12/17 15:00:23;;;;;;;24.30;2.42;;;11.20;35.50;;;;;;5013410;28;20208;-72
2021/12/17 15:03:07;;;;;;;25.17;2.60;;;11.20;35.60;;;;;;5012743;28;20204;-72
2021/12/17 15:05:32;;;;;;;27.25;3.10;;;11.40;35.30;;;;;;5013022;28;20642;-72
2021/12/17 15:07:59;;;;;;;36.60;3.53;;;;;;;;;;5012813;28;20177;-73
2021/12/17 15:10:26;;;;;;;26.00;3.13;;;;;;;;;;5013030;28;20205;-73
2021/12/17 15:12:56;;;;;;;24.33;3.15;;;11.30;35.20;;;;;;5013059;28;20191;-73
2021/12/17 15:15:24;;;;;;;21.42;2.75;;;11.40;35.30;;;;;;5012937;28;20847;-72
2021/12/17 15:17:52;;;;;;;34.22;3.17;;;11.40;35.40;;;;;;5004756;28;20537;-72
2021/12/17 15:20:23;;;;;;;17.17;2.70;;;11.20;35.40;;;;;;5012661;28;20313;-73
2021/12/17 15:22:50;;;;;;;24.42;2.80;;;;;;;;;;5012489;28;20208;-73
2021/12/17 15:25:16;;;;;;;21.02;2.30;;;;;;;;;;5012525;28;20188;-72
2021/12/17 15:27:42;;;;;;;17.45;2.20;;;;;;;;;;5012377;28;20216;-73
2021/12/17 15:30:10;;;;;;;30.13;3.08;;;;;;;;;;5012560;28;20204;-73
2021/12/17 15:32:36;;;;;;;34.72;3.20;;;11.00;36.80;;;;;;5012262;28;20303;-73
2021/12/17 15:35:03;;;;;;;21.00;3.13;;;11.00;37.00;;;;;;5012418;28;20434;-73
2021/12/17 15:37:29;;;;;;;20.05;2.75;;;;;;;;;;5012164;28;20504;-72
2021/12/17 15:39:55;;;;;;;27.00;3.20;;;;;;;;;;5012379;28;20199;-73
2021/12/17 15:42:21;;;;;;;19.40;2.30;;;11.20;36.50;;;;;;5012191;28;20252;-73
2021/12/17 15:44:47;;;;;;;25.73;2.87;;;;;;;;;;5011967;28;20217;-73
2021/12/17 15:47:13;;;;;;;21.80;2.83;;;;;;;;;;5012098;28;20226;-73
2021/12/17 15:49:39;;;;;;;22.33;2.90;;;;;;;;;;5011680;28;20888;-73
2021/12/17 15:52:08;;;;;;;23.70;2.85;;;10.80;38.30;;;;;;5012302;28;20184;-72
2021/12/17 15:54:36;;;;;;;38.58;3.25;;;;;;;;;;5011936;28;20274;-73
2021/12/17 15:57:02;;;;;;;31.08;3.60;;;10.90;38.90;;;;;;5011172;28;21246;-73
2021/12/17 15:59:28;;;;;;;21.55;2.63;;;11.00;38.20;;;;;;5010513;28;20212;-73
2021/12/17 16:01:54;;;;;;;30.37;3.20;;;;;;;;;;5011819;28;20251;-72
2021/12/17 16:04:20;;;;;;;20.70;2.67;;;10.80;38.70;;;;;;5011928;28;20269;-73
2021/12/17 16:06:46;;;;;;;20.23;3.00;;;10.70;39.50;;;;;;5011606;28;20264;-73
2021/12/17 16:09:38;;;;;;;22.27;3.00;;;;;;;;;;5011970;28;20438;-73
2021/12/17 16:22:36;;;;;;;21.13;2.33;;;10.90;40.80;;;;;;5011623;28;20208;-73
2021/12/17 16:25:02;;;;;;;25.67;2.43;;;;;;;;;;5026093;28;20559;-73
2021/12/17 16:27:28;;;;;;;19.48;2.25;;;;;;;;;;5011403;28;20236;-73
2021/12/17 16:29:54;;;;;;;24.42;2.63;;;;;;;;;;5011501;28;20199;-73
2021/12/17 16:32:20;;;;;;;27.25;3.08;;;11.00;41.90;;;;;;5010727;28;20254;-73
2021/12/17 16:34:46;;;;;;;22.97;3.43;;;;;;;;;;5011206;28;20186;-73
2021/12/17 16:37:12;;;;;;;14.30;1.90;;;;;;;;;;5009999;28;20437;-73
2021/12/17 16:39:38;;;;;;;15.15;2.35;;;;;;;;;;5011555;28;21084;-72
2021/12/17 16:42:04;;;;;;;21.10;2.45;;;;;;;;;;5010919;28;20211;-72
2021/12/17 16:47:34;;;;;;;23.70;2.40;;;10.90;42.00;;;;;;4950503;29;20182;-72
2021/12/17 16:50:00;;;;;;;36.40;3.80;;;10.90;42.00;;;;;;4999066;28;20223;-72
2021/12/17 16:52:29;;;;;;;18.48;2.42;;;10.50;42.80;;;;;;5011627;28;20643;-72